Time;durP1;ratioP1;P1;durP2;ratioP2;P2;SDS_P1;SDS_P2;PMS_P1;PMS_P2;Temp;Humidity;BMP_temperature;BMP_pressure;BME280_temperature;BME280_humidity;BME280_pressure;Samples;Min_cycle;Max_cycle;Signal;HPM_P1;HPM_P2
2021/09/20 00:01:08;;;;;;;0.10;0.10;;;9.20;44.80;;;;;;4851706;28;20770;-83
2021/09/20 00:03:30;;;;;;;0.00;0.00;;;9.20;44.50;;;;;;4861928;28;20194;-80
2021/09/20 00:05:53;;;;;;;0.20;0.20;;;9.40;44.50;;;;;;4851107;28;20182;-82
2021/09/20 00:08:15;;;;;;;0.10;0.10;;;9.40;44.60;;;;;;4849079;28;20193;-79
2021/09/20 00:10:39;;;;;;;0.10;0.10;;;9.50;44.60;;;;;;4849662;28;20185;-82
2021/09/20 00:13:02;;;;;;;0.10;0.10;;;;;;;;;;4845966;28;20194;-79
2021/09/20 00:15:25;;;;;;;0.10;0.10;;;;;;;;;;4846000;28;20202;-81
2021/09/20 00:17:47;;;;;;;0.20;0.20;;;9.60;44.70;;;;;;4849265;28;20619;-77
2021/09/20 00:20:13;;;;;;;0.10;0.10;;;9.70;44.80;;;;;;4860894;28;20713;-79
2021/09/20 00:22:36;;;;;;;0.10;0.10;;;9.80;44.90;;;;;;4845903;28;20610;-82
2021/09/20 00:24:59;;;;;;;0.10;0.10;;;9.90;45.10;;;;;;4846234;28;20194;-82
2021/09/20 00:27:23;;;;;;;0.10;0.10;;;9.90;45.30;;;;;;4815673;28;1122041;-82
2021/09/20 00:29:46;;;;;;;0.10;0.10;;;9.90;45.40;;;;;;4855253;28;20252;-82
2021/09/20 00:32:08;;;;;;;0.10;0.10;;;10.00;45.30;;;;;;4855684;28;20295;-82
2021/09/20 00:34:31;;;;;;;0.20;0.20;;;10.00;45.30;;;;;;4848353;28;20196;-82
2021/09/20 00:36:54;;;;;;;0.10;0.10;;;10.00;45.40;;;;;;4851581;28;20782;-81
2021/09/20 00:39:16;;;;;;;0.00;0.00;;;10.10;45.50;;;;;;4868067;28;20197;-81
2021/09/20 00:41:39;;;;;;;0.10;0.10;;;10.10;45.50;;;;;;4846627;28;20183;-82
2021/09/20 00:44:03;;;;;;;0.10;0.10;;;10.20;45.80;;;;;;4849932;28;20193;-82
2021/09/20 00:46:28;;;;;;;0.10;0.10;;;;;;;;;;4843921;28;20652;-83
2021/09/20 00:48:50;;;;;;;0.00;0.00;;;10.20;45.90;;;;;;4849408;28;20190;-77
2021/09/20 00:51:13;;;;;;;0.13;0.13;;;10.20;46.00;;;;;;4847496;28;20623;-81
2021/09/20 00:53:35;;;;;;;0.20;0.20;;;10.20;46.00;;;;;;4849054;28;20191;-81
2021/09/20 00:55:58;;;;;;;0.03;0.03;;;10.20;46.00;;;;;;4846885;28;20603;-81
2021/09/20 00:58:21;;;;;;;0.07;0.07;;;10.20;46.00;;;;;;4846901;28;20194;-83
2021/09/20 01:00:45;;;;;;;0.10;0.10;;;10.20;46.00;;;;;;4857466;28;20186;-82
2021/09/20 01:03:07;;;;;;;0.17;0.17;;;10.20;46.00;;;;;;4850844;28;20225;-82
2021/09/20 01:05:30;;;;;;;0.10;0.10;;;10.20;46.00;;;;;;4845165;28;20232;-77
2021/09/20 01:07:53;;;;;;;0.10;0.10;;;10.20;46.00;;;;;;4843440;28;20228;-81
2021/09/20 01:10:16;;;;;;;0.10;0.10;;;;;;;;;;4852470;28;20207;-78
2021/09/20 01:12:39;;;;;;;0.17;0.17;;;10.20;46.10;;;;;;4841298;28;20214;-80
2021/09/20 01:15:02;;;;;;;0.07;0.07;;;10.20;46.10;;;;;;4843447;28;20190;-83
2021/09/20 01:17:26;;;;;;;0.10;0.10;;;10.20;46.20;;;;;;4847097;28;20187;-82
2021/09/20 01:19:49;;;;;;;0.10;0.10;;;10.20;46.10;;;;;;4845178;28;20260;-82
2021/09/20 01:22:16;;;;;;;0.00;0.00;;;10.20;46.10;;;;;;4846284;28;20194;-82
2021/09/20 01:24:40;;;;;;;0.20;0.20;;;10.30;46.20;;;;;;4842286;28;20237;-83
2021/09/20 01:27:05;;;;;;;0.10;0.10;;;10.30;46.20;;;;;;4850365;28;20252;-74
2021/09/20 01:29:28;;;;;;;0.10;0.10;;;10.30;46.20;;;;;;4847710;28;20214;-77
2021/09/20 01:31:51;;;;;;;0.07;0.07;;;10.30;46.20;;;;;;4852449;28;20610;-78
2021/09/20 01:34:13;;;;;;;0.10;0.10;;;10.30;46.20;;;;;;4848230;28;20243;-83
2021/09/20 01:36:36;;;;;;;0.10;0.10;;;10.40;46.30;;;;;;4847886;28;20194;-81
2021/09/20 01:38:58;;;;;;;0.10;0.10;;;10.30;46.20;;;;;;4854573;28;20277;-84
2021/09/20 01:41:22;;;;;;;0.10;0.10;;;10.40;46.20;;;;;;4850728;28;20186;-79
2021/09/20 01:43:45;;;;;;;0.10;0.10;;;10.40;46.30;;;;;;4839672;28;20182;-87
2021/09/20 01:46:08;;;;;;;0.10;0.10;;;10.40;46.30;;;;;;4849660;28;20205;-85
2021/09/20 01:48:30;;;;;;;0.10;0.10;;;10.60;46.50;;;;;;4839437;28;20194;-76
2021/09/20 01:50:53;;;;;;;0.00;0.00;;;10.40;46.40;;;;;;4844734;28;20261;-80
2021/09/20 01:53:16;;;;;;;0.10;0.10;;;10.40;46.40;;;;;;4846998;28;20213;-82
2021/09/20 01:55:38;;;;;;;0.13;0.13;;;10.40;46.40;;;;;;4845972;28;20652;-83
2021/09/20 01:58:02;;;;;;;0.20;0.20;;;10.40;46.40;;;;;;4849983;28;20216;-82
2021/09/20 02:00:25;;;;;;;0.10;0.10;;;10.40;46.40;;;;;;4846264;28;20194;-75
2021/09/20 02:02:47;;;;;;;0.10;0.10;;;10.40;46.40;;;;;;4854026;28;20240;-75
2021/09/20 02:05:11;;;;;;;0.10;0.10;;;10.30;46.30;;;;;;4841447;28;20237;-81
2021/09/20 02:07:34;;;;;;;0.10;0.10;;;10.40;46.40;;;;;;4861403;28;20202;-82
2021/09/20 02:09:57;;;;;;;0.00;0.00;;;10.40;46.30;;;;;;4843621;28;20240;-83
2021/09/20 02:12:19;;;;;;;0.07;0.07;;;10.40;46.30;;;;;;4847691;28;20222;-80
2021/09/20 02:14:43;;;;;;;0.10;0.10;;;10.40;46.10;;;;;;4845985;28;20209;-83
2021/09/20 02:17:06;;;;;;;0.20;0.20;;;10.50;46.30;;;;;;4850113;28;20216;-83
2021/09/20 02:19:28;;;;;;;0.17;0.17;;;10.50;46.30;;;;;;4839571;28;20220;-81
2021/09/20 02:21:51;;;;;;;0.10;0.10;;;10.50;46.40;;;;;;4848351;28;20194;-82
2021/09/20 02:24:14;;;;;;;0.10;0.10;;;10.60;46.40;;;;;;4848681;28;20256;-82
2021/09/20 02:26:36;;;;;;;0.10;0.10;;;10.50;46.40;;;;;;4850936;28;20777;-84
2021/09/20 02:28:59;;;;;;;0.03;0.03;;;10.60;46.40;;;;;;4850719;28;20214;-82
2021/09/20 02:31:23;;;;;;;0.10;0.10;;;10.50;46.40;;;;;;4844615;28;20225;-82
2021/09/20 02:33:45;;;;;;;0.10;0.10;;;10.70;46.50;;;;;;4852282;28;20206;-82
2021/09/20 02:36:09;;;;;;;0.10;0.10;;;10.50;46.30;;;;;;4845003;28;20191;-82
2021/09/20 02:38:32;;;;;;;0.10;0.10;;;10.50;46.30;;;;;;4851820;28;20198;-83
2021/09/20 02:40:54;;;;;;;0.10;0.10;;;10.70;46.40;;;;;;4846341;28;20233;-82
2021/09/20 02:43:17;;;;;;;0.10;0.10;;;10.50;46.30;;;;;;4846602;28;20190;-81
2021/09/20 02:45:39;;;;;;;0.10;0.10;;;10.50;46.30;;;;;;4847380;28;20187;-80
2021/09/20 02:48:04;;;;;;;0.20;0.20;;;10.50;46.30;;;;;;4844354;28;20233;-75
2021/09/20 02:50:26;;;;;;;0.10;0.10;;;10.50;46.30;;;;;;4841778;28;20245;-74
2021/09/20 02:52:49;;;;;;;0.10;0.10;;;10.50;46.30;;;;;;4848357;28;20657;-78
2021/09/20 02:55:12;;;;;;;0.10;0.10;;;10.50;46.20;;;;;;4845044;28;20280;-82
2021/09/20 02:57:35;;;;;;;0.17;0.17;;;10.50;46.20;;;;;;4846766;28;20186;-84
2021/09/20 02:59:58;;;;;;;0.00;0.00;;;10.50;46.20;;;;;;4851553;28;20584;-83
2021/09/20 03:02:20;;;;;;;0.10;0.10;;;10.60;46.20;;;;;;4849723;28;20268;-82
2021/09/20 03:04:44;;;;;;;0.20;0.20;;;10.50;46.20;;;;;;4847939;28;20400;-83
2021/09/20 03:07:07;;;;;;;0.10;0.10;;;10.50;46.20;;;;;;4843689;28;20198;-83
2021/09/20 03:09:29;;;;;;;0.00;0.00;;;10.50;46.20;;;;;;4843273;28;20673;-82
2021/09/20 03:11:52;;;;;;;0.00;0.00;;;;;;;;;;4848043;28;20233;-82
2021/09/20 03:14:14;;;;;;;0.10;0.10;;;10.50;46.10;;;;;;4845983;28;20619;-80
2021/09/20 03:16:37;;;;;;;0.20;0.20;;;;;;;;;;4861394;28;20260;-82
2021/09/20 03:19:00;;;;;;;0.10;0.10;;;10.40;46.00;;;;;;4851098;28;20191;-81
2021/09/20 03:21:24;;;;;;;0.10;0.10;;;10.50;46.10;;;;;;4849050;28;20194;-79
2021/09/20 03:23:47;;;;;;;0.07;0.07;;;10.40;46.10;;;;;;4848355;28;20195;-82
2021/09/20 03:26:10;;;;;;;0.03;0.03;;;10.40;46.00;;;;;;4847489;28;20699;-80
2021/09/20 03:28:32;;;;;;;0.10;0.10;;;10.40;46.10;;;;;;4847074;28;20239;-80
2021/09/20 03:30:55;;;;;;;0.17;0.17;;;10.40;46.00;;;;;;4848051;28;20193;-82
2021/09/20 03:33:17;;;;;;;0.00;0.00;;;10.40;46.10;;;;;;4850844;28;20213;-80
2021/09/20 03:35:40;;;;;;;0.00;0.00;;;10.50;46.00;;;;;;4870996;28;20202;-82
2021/09/20 03:38:04;;;;;;;0.17;0.17;;;10.30;46.00;;;;;;4848596;28;20238;-82
2021/09/20 03:40:26;;;;;;;0.10;0.10;;;10.50;46.00;;;;;;4855051;28;20248;-82
2021/09/20 03:42:49;;;;;;;0.10;0.10;;;10.30;46.00;;;;;;4847783;28;20179;-80
2021/09/20 03:45:12;;;;;;;0.10;0.10;;;10.30;46.00;;;;;;4855111;28;20182;-82
2021/09/20 03:47:35;;;;;;;0.10;0.10;;;10.30;46.00;;;;;;4858117;28;20190;-80
2021/09/20 03:49:58;;;;;;;0.10;0.10;;;10.30;46.00;;;;;;4858670;28;20194;-82
2021/09/20 03:52:20;;;;;;;0.10;0.10;;;10.30;46.10;;;;;;4854785;28;20228;-82
2021/09/20 03:54:44;;;;;;;0.10;0.10;;;10.30;46.10;;;;;;4847295;28;20186;-83
2021/09/20 03:57:07;;;;;;;0.10;0.10;;;10.30;46.10;;;;;;4848767;28;20260;-83
2021/09/20 03:59:30;;;;;;;0.00;0.00;;;10.30;46.20;;;;;;4848386;28;20186;-82
2021/09/20 04:01:53;;;;;;;0.10;0.10;;;10.30;46.20;;;;;;4840313;28;20227;-82
2021/09/20 04:04:16;;;;;;;0.10;0.10;;;10.20;46.00;;;;;;4854091;28;20918;-81
2021/09/20 04:06:39;;;;;;;0.10;0.10;;;10.30;46.20;;;;;;4847544;28;20186;-82
2021/09/20 04:09:02;;;;;;;0.00;0.00;;;10.30;46.20;;;;;;4847185;28;20195;-82
2021/09/20 04:11:26;;;;;;;0.00;0.00;;;10.40;46.30;;;;;;4851504;28;20186;-83
2021/09/20 04:13:49;;;;;;;0.03;0.03;;;10.40;46.20;;;;;;4847119;28;20210;-83
2021/09/20 04:16:11;;;;;;;0.00;0.00;;;;;;;;;;4852966;28;20615;-81
2021/09/20 04:18:34;;;;;;;0.00;0.00;;;10.30;46.20;;;;;;4847356;28;20240;-81
2021/09/20 04:20:57;;;;;;;0.00;0.00;;;10.40;46.20;;;;;;4847390;28;20225;-82
2021/09/20 04:23:21;;;;;;;0.10;0.10;;;10.30;46.20;;;;;;4848458;28;20255;-81
2021/09/20 04:25:44;;;;;;;0.10;0.10;;;10.30;46.30;;;;;;4849837;28;20648;-82
2021/09/20 04:28:08;;;;;;;0.10;0.10;;;10.40;46.30;;;;;;4864359;28;20209;-82
2021/09/20 04:30:31;;;;;;;0.00;0.00;;;10.40;46.30;;;;;;4847220;28;20620;-78
2021/09/20 04:32:53;;;;;;;0.10;0.10;;;10.40;46.30;;;;;;4866665;28;20221;-76
2021/09/20 04:35:16;;;;;;;0.10;0.10;;;10.40;46.20;;;;;;4849815;28;20588;-84
2021/09/20 04:37:38;;;;;;;0.20;0.20;;;10.40;46.30;;;;;;4854124;28;20186;-83
2021/09/20 04:40:01;;;;;;;0.10;0.10;;;10.30;46.30;;;;;;4851591;28;20256;-83
2021/09/20 04:42:23;;;;;;;0.20;0.20;;;10.30;46.30;;;;;;4841145;28;20622;-83
2021/09/20 04:44:47;;;;;;;0.10;0.10;;;10.40;46.30;;;;;;4848277;28;20247;-83
2021/09/20 04:47:11;;;;;;;0.00;0.00;;;10.40;46.40;;;;;;4846395;28;20614;-82
2021/09/20 04:49:33;;;;;;;0.10;0.10;;;10.40;46.40;;;;;;4848053;28;20233;-78
2021/09/20 04:51:56;;;;;;;0.10;0.10;;;10.60;46.40;;;;;;4847265;28;20209;-79
2021/09/20 04:54:19;;;;;;;0.20;0.20;;;10.40;46.40;;;;;;4846525;28;20222;-82
2021/09/20 04:56:41;;;;;;;0.10;0.10;;;10.40;46.40;;;;;;4857011;28;20200;-74
2021/09/20 04:59:04;;;;;;;0.00;0.00;;;10.50;46.50;;;;;;4852810;28;20190;-79
2021/09/20 05:01:28;;;;;;;0.10;0.10;;;10.50;46.50;;;;;;4844838;28;20245;-74
2021/09/20 05:03:50;;;;;;;0.17;0.17;;;10.50;46.60;;;;;;4849059;28;20228;-74
2021/09/20 05:06:13;;;;;;;0.10;0.10;;;10.50;46.50;;;;;;4844240;28;20241;-83
2021/09/20 05:08:35;;;;;;;0.10;0.10;;;10.60;46.60;;;;;;4851111;28;20178;-82
2021/09/20 05:10:58;;;;;;;0.10;0.10;;;;;;;;;;4850501;28;20182;-74
2021/09/20 05:13:21;;;;;;;0.10;0.10;;;10.50;46.60;;;;;;4848781;28;20659;-81
2021/09/20 05:15:44;;;;;;;0.20;0.20;;;10.50;46.60;;;;;;4846186;28;20699;-83
2021/09/20 05:18:08;;;;;;;0.10;0.10;;;10.50;46.70;;;;;;4846431;28;20190;-79
2021/09/20 05:20:30;;;;;;;0.13;0.13;;;10.50;46.60;;;;;;4852528;28;20190;-76
2021/09/20 05:22:53;;;;;;;0.00;0.00;;;10.50;46.70;;;;;;4847653;28;20178;-77
2021/09/20 05:25:16;;;;;;;0.00;0.00;;;10.50;46.70;;;;;;4850523;28;20245;-80
2021/09/20 05:27:39;;;;;;;0.10;0.10;;;10.60;46.80;;;;;;4851999;28;20218;-81
2021/09/20 05:30:02;;;;;;;0.10;0.10;;;10.60;46.80;;;;;;4845670;28;20210;-82
2021/09/20 05:32:25;;;;;;;0.10;0.10;;;10.60;46.70;;;;;;4857308;28;20245;-81
2021/09/20 05:34:49;;;;;;;0.10;0.10;;;10.80;46.80;;;;;;4857063;28;20217;-80
2021/09/20 05:37:12;;;;;;;0.20;0.20;;;;;;;;;;4857178;28;20185;-81
2021/09/20 05:39:34;;;;;;;0.10;0.10;;;10.70;46.90;;;;;;4852344;28;20632;-83
2021/09/20 05:41:57;;;;;;;0.10;0.10;;;10.80;47.00;;;;;;4857366;28;20186;-82
2021/09/20 05:44:19;;;;;;;0.10;0.10;;;10.80;47.00;;;;;;4857445;28;20806;-81
2021/09/20 05:46:42;;;;;;;0.10;0.10;;;10.90;47.10;;;;;;4857054;28;20248;-82
2021/09/20 05:49:04;;;;;;;0.10;0.10;;;11.10;47.20;;;;;;4856771;28;20182;-81
2021/09/20 05:51:28;;;;;;;0.10;0.10;;;11.10;47.30;;;;;;4857026;28;20182;-81
2021/09/20 05:53:51;;;;;;;0.10;0.10;;;11.10;47.30;;;;;;4856977;28;20236;-77
2021/09/20 05:56:14;;;;;;;0.10;0.10;;;11.10;47.30;;;;;;4848201;28;20617;-81
2021/09/20 05:58:36;;;;;;;0.10;0.10;;;11.20;47.40;;;;;;4845683;28;20244;-81
2021/09/20 06:00:59;;;;;;;0.20;0.20;;;11.20;47.20;;;;;;4842422;28;20585;-82
2021/09/20 06:03:22;;;;;;;0.10;0.10;;;11.30;47.40;;;;;;4846520;28;20206;-81
2021/09/20 06:05:45;;;;;;;0.10;0.10;;;11.40;47.50;;;;;;4843824;28;20186;-78
2021/09/20 06:08:09;;;;;;;0.20;0.20;;;11.50;47.60;;;;;;4846038;28;20660;-80
2021/09/20 06:10:31;;;;;;;0.10;0.10;;;11.60;47.60;;;;;;4845082;28;20221;-81
2021/09/20 06:12:54;;;;;;;0.10;0.10;;;11.70;47.80;;;;;;4845834;28;20187;-82
2021/09/20 06:15:17;;;;;;;0.10;0.10;;;11.80;47.90;;;;;;4840783;28;20280;-81
2021/09/20 06:17:39;;;;;;;0.10;0.10;;;11.90;48.00;;;;;;4847822;28;20237;-82
2021/09/20 06:20:02;;;;;;;0.10;0.10;;;12.00;48.00;;;;;;4841856;28;20588;-81
2021/09/20 06:22:25;;;;;;;0.20;0.20;;;;;;;;;;4851167;28;20182;-81
2021/09/20 06:24:49;;;;;;;0.20;0.20;;;12.20;48.30;;;;;;4844227;28;20553;-81
2021/09/20 06:27:12;;;;;;;0.00;0.00;;;12.30;48.30;;;;;;4837072;28;20246;-81
2021/09/20 06:29:34;;;;;;;0.00;0.00;;;12.40;48.40;;;;;;4847923;28;20687;-81
2021/09/20 06:31:58;;;;;;;0.10;0.10;;;12.40;48.30;;;;;;4856638;28;20602;-81
2021/09/20 06:34:20;;;;;;;0.07;0.07;;;12.50;48.40;;;;;;4856739;28;20276;-81
2021/09/20 06:36:43;;;;;;;0.10;0.10;;;12.40;48.40;;;;;;4856549;28;20182;-82
2021/09/20 06:39:06;;;;;;;0.10;0.10;;;12.30;48.40;;;;;;4856519;28;20182;-85
2021/09/20 06:41:29;;;;;;;0.00;0.00;;;12.40;48.50;;;;;;4856514;28;20200;-81
2021/09/20 06:43:52;;;;;;;0.00;0.00;;;12.40;48.60;;;;;;4856490;28;20198;-82
2021/09/20 06:46:15;;;;;;;0.10;0.10;;;12.40;48.50;;;;;;4856439;28;20213;-84
2021/09/20 06:48:38;;;;;;;0.10;0.10;;;12.50;48.60;;;;;;4856214;28;20273;-83
2021/09/20 06:51:01;;;;;;;0.10;0.10;;;12.60;48.70;;;;;;4856451;28;20206;-81
2021/09/20 06:53:23;;;;;;;0.00;0.00;;;12.70;48.90;;;;;;4859841;28;20244;-79
2021/09/20 06:55:46;;;;;;;0.00;0.00;;;12.80;49.10;;;;;;4855491;28;20222;-80
2021/09/20 06:58:10;;;;;;;0.00;0.00;;;13.00;49.40;;;;;;4849028;28;20612;-82
2021/09/20 07:00:33;;;;;;;0.10;0.10;;;13.10;49.60;;;;;;4863164;28;20721;-76
2021/09/20 07:02:55;;;;;;;0.10;0.10;;;13.10;49.90;;;;;;4860203;28;20271;-78
2021/09/20 07:05:18;;;;;;;0.10;0.10;;;13.20;50.10;;;;;;4861556;28;20216;-82
2021/09/20 07:07:41;;;;;;;0.00;0.00;;;13.30;50.10;;;;;;4858869;28;20182;-83
2021/09/20 07:10:04;;;;;;;0.10;0.10;;;13.30;50.30;;;;;;4859600;28;20660;-87
2021/09/20 07:12:29;;;;;;;0.10;0.10;;;13.40;50.40;;;;;;4859121;28;20232;-81
2021/09/20 07:14:53;;;;;;;0.10;0.10;;;13.40;50.40;;;;;;4850535;28;20242;-82
2021/09/20 07:17:15;;;;;;;0.10;0.10;;;13.40;50.40;;;;;;4840561;28;20715;-83
2021/09/20 07:19:38;;;;;;;0.10;0.10;;;13.40;50.40;;;;;;4837972;28;20198;-82
2021/09/20 07:22:00;;;;;;;0.00;0.00;;;13.40;50.40;;;;;;4854593;28;20210;-81
2021/09/20 07:24:23;;;;;;;0.10;0.10;;;13.40;50.50;;;;;;4840453;28;20187;-82
2021/09/20 07:26:45;;;;;;;0.10;0.10;;;13.50;50.50;;;;;;4839921;28;20284;-81
2021/09/20 07:29:08;;;;;;;0.10;0.10;;;13.70;50.60;;;;;;4839729;28;20279;-80
2021/09/20 07:31:32;;;;;;;0.10;0.10;;;13.80;50.70;;;;;;4855586;28;20244;-83
2021/09/20 07:33:55;;;;;;;0.00;0.00;;;13.90;50.80;;;;;;4858699;28;20194;-84
2021/09/20 07:36:18;;;;;;;0.00;0.00;;;14.00;51.00;;;;;;4859499;28;20267;-83
2021/09/20 07:38:40;;;;;;;0.00;0.00;;;14.10;51.00;;;;;;4859123;28;20237;-82
2021/09/20 07:41:03;;;;;;;0.03;0.03;;;14.20;51.20;;;;;;4858118;28;20240;-82
2021/09/20 07:43:25;;;;;;;0.00;0.00;;;14.30;51.20;;;;;;4858700;28;20206;-86
2021/09/20 07:45:48;;;;;;;0.00;0.00;;;14.40;51.30;;;;;;4859091;28;20193;-80
2021/09/20 07:48:12;;;;;;;0.10;0.10;;;14.40;51.40;;;;;;4859792;28;20220;-81
2021/09/20 07:50:34;;;;;;;0.00;0.00;;;14.50;51.50;;;;;;4859005;28;20252;-82
2021/09/20 07:52:57;;;;;;;0.10;0.10;;;14.60;51.60;;;;;;4858915;28;20191;-83
2021/09/20 07:55:20;;;;;;;0.10;0.10;;;14.80;51.90;;;;;;4859786;28;20280;-82
2021/09/20 07:57:42;;;;;;;0.00;0.00;;;14.80;52.00;;;;;;4859488;28;20190;-85
2021/09/20 08:00:07;;;;;;;0.10;0.10;;;14.70;52.10;;;;;;4859554;28;20758;-85
2021/09/20 08:02:30;;;;;;;0.10;0.10;;;14.50;52.10;;;;;;4855399;28;20568;-84
2021/09/20 08:04:54;;;;;;;0.10;0.10;;;14.40;52.10;;;;;;4859171;28;20244;-77
2021/09/20 08:07:16;;;;;;;0.10;0.10;;;14.30;52.10;;;;;;4858954;28;20565;-81
2021/09/20 08:09:39;;;;;;;0.00;0.00;;;14.10;51.90;;;;;;4858561;28;20178;-87
2021/09/20 08:12:01;;;;;;;0.00;0.00;;;14.20;52.00;;;;;;4858143;28;20186;-83
2021/09/20 08:14:24;;;;;;;0.00;0.00;;;14.40;52.00;;;;;;4857906;28;20236;-86
2021/09/20 08:16:47;;;;;;;0.10;0.10;;;14.70;52.30;;;;;;4859052;28;20215;-82
2021/09/20 08:19:09;;;;;;;0.00;0.00;;;14.80;52.60;;;;;;4857872;28;20194;-85
2021/09/20 08:21:34;;;;;;;0.00;0.00;;;14.90;52.80;;;;;;4859046;28;20182;-86
2021/09/20 08:23:57;;;;;;;0.00;0.00;;;14.70;52.70;;;;;;4857968;28;20186;-83
2021/09/20 08:26:19;;;;;;;0.10;0.10;;;14.70;52.70;;;;;;4859161;28;20285;-85
2021/09/20 08:28:42;;;;;;;0.00;0.00;;;14.70;52.70;;;;;;4873623;28;20226;-84
2021/09/20 08:31:05;;;;;;;0.00;0.00;;;14.70;52.90;;;;;;4859045;28;20191;-80
2021/09/20 08:33:29;;;;;;;0.10;0.10;;;14.60;52.70;;;;;;4857895;28;20194;-86
2021/09/20 08:35:51;;;;;;;0.17;0.17;;;14.70;52.90;;;;;;4856970;28;20210;-82
2021/09/20 08:38:16;;;;;;;0.00;0.00;;;14.70;52.80;;;;;;4858551;28;20186;-79
2021/09/20 08:40:38;;;;;;;0.10;0.10;;;14.70;53.00;;;;;;4857997;28;20186;-80
2021/09/20 08:43:02;;;;;;;0.00;0.00;;;14.70;52.90;;;;;;4858134;28;20206;-81
2021/09/20 08:45:25;;;;;;;0.10;0.10;;;14.70;53.00;;;;;;4858230;28;20193;-83
2021/09/20 08:47:54;;;;;;;0.10;0.10;;;14.70;52.90;;;;;;4858209;28;20193;-87
2021/09/20 08:50:19;;;;;;;0.10;0.10;;;14.60;52.80;;;;;;4858505;28;20216;-85
2021/09/20 08:52:41;;;;;;;0.10;0.10;;;14.70;52.80;;;;;;4838481;28;20210;-85
2021/09/20 08:55:06;;;;;;;0.00;0.00;;;14.90;53.10;;;;;;4845373;28;20225;-81
2021/09/20 08:57:29;;;;;;;0.07;0.07;;;15.00;53.00;;;;;;4876426;28;20181;-81
2021/09/20 08:59:51;;;;;;;0.10;0.10;;;15.20;53.20;;;;;;4876011;28;20582;-82
2021/09/20 09:02:16;;;;;;;0.10;0.10;;;15.40;53.40;;;;;;4863336;28;20229;-82
2021/09/20 09:04:40;;;;;;;0.10;0.10;;;15.40;53.40;;;;;;4857272;28;20248;-85
2021/09/20 09:07:04;;;;;;;0.00;0.00;;;15.40;53.50;;;;;;4856977;28;20190;-80
2021/09/20 09:09:33;;;;;;;0.00;0.00;;;15.50;53.60;;;;;;4857522;28;20232;-84
2021/09/20 09:12:10;;;;;;;0.00;0.00;;;15.40;53.50;;;;;;4857588;28;20186;-85
2021/09/20 09:14:39;;;;;;;0.00;0.00;;;15.30;53.50;;;;;;4857186;28;20715;-79
2021/09/20 09:17:02;;;;;;;0.00;0.00;;;15.30;53.40;;;;;;4857548;28;20626;-81
2021/09/20 09:19:24;;;;;;;0.10;0.10;;;15.40;53.40;;;;;;4856669;28;20570;-83
2021/09/20 09:21:47;;;;;;;0.00;0.00;;;15.50;53.60;;;;;;4857168;28;20190;-81
2021/09/20 09:24:12;;;;;;;0.10;0.10;;;15.40;53.70;;;;;;4857512;28;20186;-83
2021/09/20 09:26:35;;;;;;;0.10;0.10;;;15.40;53.80;;;;;;4857639;28;20225;-83
2021/09/20 09:29:09;;;;;;;0.10;0.10;;;15.30;53.90;;;;;;4856687;28;20222;-79
2021/09/20 09:31:34;;;;;;;0.07;0.07;;;15.50;53.90;;;;;;4858058;28;20231;-83
2021/09/20 09:33:57;;;;;;;0.00;0.00;;;15.80;54.10;;;;;;4853586;28;20197;-82
2021/09/20 09:36:20;;;;;;;0.10;0.10;;;16.10;54.50;;;;;;4838807;28;20222;-87
2021/09/20 09:38:59;;;;;;;0.10;0.10;;;16.30;54.60;;;;;;4838770;28;20606;-83
2021/09/20 09:41:33;;;;;;;0.10;0.10;;;16.30;54.70;;;;;;4838243;28;20644;-85
2021/09/20 09:44:04;;;;;;;0.10;0.10;;;16.30;54.80;;;;;;4837083;28;20596;-82
2021/09/20 09:46:28;;;;;;;0.10;0.10;;;16.50;54.90;;;;;;4838139;28;20233;-83
2021/09/20 09:48:53;;;;;;;0.10;0.10;;;17.10;55.30;;;;;;4837695;28;20190;-85
2021/09/20 09:51:17;;;;;;;0.00;0.00;;;17.70;55.70;;;;;;4843593;28;20288;-84
2021/09/20 09:53:42;;;;;;;0.10;0.10;;;19.00;56.50;;;;;;4856238;28;20186;-81
2021/09/20 09:56:18;;;;;;;0.10;0.10;;;20.60;57.70;;;;;;4857407;28;20213;-75
2021/09/20 09:58:52;;;;;;;0.00;0.00;;;21.30;58.90;;;;;;4872083;28;20649;-81
2021/09/20 10:01:20;;;;;;;0.00;0.00;;;21.00;59.00;;;;;;4853786;28;20245;-86
2021/09/20 10:04:23;;;;;;;0.00;0.00;;;20.20;58.70;;;;;;4856189;28;20236;-83
2021/09/20 10:06:54;;;;;;;0.00;0.00;;;19.40;58.30;;;;;;4857453;28;20205;-84
2021/09/20 10:09:19;;;;;;;0.10;0.10;;;18.40;57.80;;;;;;4857637;28;20194;-85
2021/09/20 10:11:44;;;;;;;0.00;0.00;;;17.60;57.50;;;;;;4856835;28;20231;-85
2021/09/20 10:14:09;;;;;;;0.00;0.00;;;16.90;57.10;;;;;;4856093;28;20297;-85
2021/09/20 10:16:33;;;;;;;0.00;0.00;;;16.40;56.70;;;;;;4857366;28;20633;-85
2021/09/20 10:18:56;;;;;;;0.00;0.00;;;16.10;56.40;;;;;;4857594;28;20190;-84
2021/09/20 10:21:23;;;;;;;0.00;0.00;;;16.00;56.30;;;;;;4857232;28;20186;-85
2021/09/20 10:23:45;;;;;;;0.00;0.00;;;15.90;56.20;;;;;;4855089;28;20184;-87
2021/09/20 10:26:08;;;;;;;0.00;0.00;;;15.80;56.20;;;;;;4857020;28;20229;-76
2021/09/20 10:28:31;;;;;;;0.10;0.10;;;16.30;56.10;;;;;;4861680;28;20232;-81
2021/09/20 10:30:54;;;;;;;0.07;0.07;;;15.90;56.10;;;;;;4861050;28;20260;-83
2021/09/20 10:33:16;;;;;;;0.10;0.10;;;16.00;56.10;;;;;;4860428;28;20186;-87
2021/09/20 10:35:40;;;;;;;0.00;0.00;;;16.20;56.20;;;;;;4859233;28;20235;-80
2021/09/20 10:38:25;;;;;;;0.03;0.03;;;16.20;56.40;;;;;;4861846;28;21010;-85
2021/09/20 10:41:09;;;;;;;0.10;0.10;;;16.20;56.30;;;;;;4859804;28;20205;-82
2021/09/20 10:43:32;;;;;;;0.00;0.00;;;16.10;56.10;;;;;;4860298;28;20178;-82
2021/09/20 10:45:55;;;;;;;0.00;0.00;;;15.90;56.10;;;;;;4860504;28;20651;-84
2021/09/20 10:48:49;;;;;;;0.03;0.03;;;15.70;55.90;;;;;;4862123;28;20240;-85
2021/09/20 10:51:22;;;;;;;0.03;0.03;;;15.70;55.80;;;;;;4861585;28;20767;-87
2021/09/20 10:53:46;;;;;;;0.00;0.00;;;15.60;55.60;;;;;;4860483;28;20185;-87
2021/09/20 10:56:15;;;;;;;0.00;0.00;;;15.50;55.40;;;;;;4860884;28;20217;-80
2021/09/20 10:58:39;;;;;;;0.00;0.00;;;15.50;55.20;;;;;;4859798;28;20657;-87
2021/09/20 11:01:29;;;;;;;0.00;0.00;;;15.50;55.30;;;;;;4858720;28;20233;-85
2021/09/20 11:03:54;;;;;;;0.00;0.00;;;15.50;55.20;;;;;;4862468;28;20178;-87
2021/09/20 11:06:20;;;;;;;0.10;0.10;;;15.40;55.40;;;;;;4861122;28;20182;-86
2021/09/20 11:08:43;;;;;;;0.00;0.00;;;15.40;55.30;;;;;;4861247;28;20562;-87
2021/09/20 11:11:40;;;;;;;0.00;0.00;;;15.30;55.10;;;;;;4860407;28;20626;-86
2021/09/20 11:14:04;;;;;;;0.00;0.00;;;15.30;55.30;;;;;;4860214;28;20178;-86
2021/09/20 11:16:46;;;;;;;0.00;0.00;;;15.40;55.30;;;;;;4860854;28;20239;-89
2021/09/20 11:19:42;;;;;;;0.10;0.10;;;15.30;55.50;;;;;;4860511;28;20170;-85
2021/09/20 11:22:22;;;;;;;0.00;0.00;;;15.30;55.40;;;;;;4860514;28;20174;-85
2021/09/20 11:24:46;;;;;;;0.03;0.03;;;15.30;55.30;;;;;;4860581;28;20231;-79
2021/09/20 11:27:16;;;;;;;0.00;0.00;;;15.30;55.20;;;;;;4858754;28;20241;-86
2021/09/20 11:29:40;;;;;;;0.00;0.00;;;15.30;55.30;;;;;;4860230;28;20242;-87
2021/09/20 11:32:05;;;;;;;0.10;0.10;;;15.20;55.20;;;;;;4860310;28;20186;-87
2021/09/20 11:34:28;;;;;;;0.10;0.10;;;15.00;54.90;;;;;;4861012;28;20190;-84
2021/09/20 11:36:51;;;;;;;0.10;0.10;;;14.90;54.90;;;;;;4859374;28;20260;-88
2021/09/20 11:39:19;;;;;;;0.03;0.03;;;14.60;54.90;;;;;;4840913;28;20525;-84
2021/09/20 11:41:44;;;;;;;0.10;0.10;;;14.40;54.70;;;;;;4841140;28;20645;-88
2021/09/20 11:44:08;;;;;;;0.10;0.10;;;14.30;54.60;;;;;;4841769;28;20707;-87
2021/09/20 11:46:31;;;;;;;0.07;0.07;;;14.30;54.60;;;;;;4842180;28;20187;-85
2021/09/20 11:49:07;;;;;;;0.00;0.00;;;14.30;54.60;;;;;;4841837;28;20252;-81
2021/09/20 11:51:29;;;;;;;0.00;0.00;;;14.50;54.50;;;;;;4851334;28;20182;-86
2021/09/20 11:53:52;;;;;;;0.10;0.10;;;14.60;54.60;;;;;;4859881;28;20245;-85
2021/09/20 11:56:16;;;;;;;0.10;0.10;;;14.90;54.70;;;;;;4860265;28;20652;-80
2021/09/20 11:58:39;;;;;;;0.10;0.10;;;15.10;54.90;;;;;;4860327;28;20244;-85
2021/09/20 12:01:03;;;;;;;0.00;0.00;;;15.20;55.10;;;;;;4857469;28;20696;-87
2021/09/20 12:03:25;;;;;;;0.07;0.07;;;15.30;55.20;;;;;;4858857;28;20272;-89
2021/09/20 12:05:49;;;;;;;0.00;0.00;;;15.30;55.20;;;;;;4859669;28;20270;-78
2021/09/20 12:08:14;;;;;;;0.10;0.10;;;15.40;55.30;;;;;;4860002;28;20186;-87
2021/09/20 12:10:39;;;;;;;0.07;0.07;;;15.40;55.30;;;;;;4859394;28;20604;-86
2021/09/20 12:13:04;;;;;;;0.10;0.10;;;15.50;55.30;;;;;;4859368;28;20240;-86
2021/09/20 12:15:29;;;;;;;0.00;0.00;;;15.40;55.30;;;;;;4859191;28;20660;-86
2021/09/20 12:18:07;;;;;;;0.00;0.00;;;15.50;55.30;;;;;;4859690;28;20752;-87
2021/09/20 12:20:34;;;;;;;0.10;0.10;;;15.40;55.30;;;;;;4859780;28;20209;-87
2021/09/20 12:22:58;;;;;;;0.10;0.10;;;15.20;55.20;;;;;;4858756;28;20222;-80
2021/09/20 12:25:35;;;;;;;0.00;0.00;;;15.10;55.10;;;;;;4858343;28;20198;-86
2021/09/20 12:27:58;;;;;;;0.00;0.00;;;15.00;55.00;;;;;;4858983;28;20182;-82
2021/09/20 12:30:24;;;;;;;0.00;0.00;;;14.90;54.90;;;;;;4859138;28;20206;-86
2021/09/20 12:32:46;;;;;;;0.00;0.00;;;14.80;54.90;;;;;;4858357;28;20729;-81
2021/09/20 12:35:11;;;;;;;0.10;0.10;;;14.70;54.90;;;;;;4859992;28;20186;-86